There are multiple Weather-warnings   Click here for more information


Meteo18 Weather Cam more information Meteo18 Weather Cam


Thunder radar more information blitzortung!


warning for Snow/Ice more information rain snow radar


Visit our other weather sites:

Template documentation
and downloads

And another site



Weather Underground History page Text

Daily Summary for March 13, 2017 Units:  English    Metric   Both
« Previous Day
Next Day »
Daily Weekly Monthly Yearly Custom
  High: Low: Average:
Temperature: TemperatureC °F 6.8 °F 10.8 °F
Dew Point: DewpointC °F 4.8 °F 6.8 °F
Humidity: Humidity % 51 % 77 %
Wind Speed: WindSpeedKMH mph 0.0 mph 8 mph
Wind Gust: WindSpeedGustKMH mph - -
Wind:- - SW
Pressure: PressurehPa in 1017.8 in -
Precipitation: 0.0 in    
Historical Graphs
 
 
Tabular Data for March 13, 2017
Time Temperature Dew Point Pressure Wind Wind Speed Wind Gust Humidity Rainfall Rate (Hourly)
TemperatureC °F DewpointC °F PressurehPa in Calm     Humidity % HourlyPrecipMM in
00:02 10.1 °F 8.9 °F 1017.8 in West 6.4 mph 17.7 mph 92 % 0.0 in
00:07 10.1 °F 8.7 °F 1017.8 in WNW 14.5 mph 17.7 mph 91 % 0.0 in
00:12 10.1 °F 8.7 °F 1017.8 in WNW 3.2 mph 17.7 mph 91 % 0.0 in
00:17 10.0 °F 8.8 °F 1017.8 in WNW 3.2 mph 17.7 mph 92 % 0.0 in
00:22 9.9 °F 8.5 °F 1017.8 in NW 4.8 mph 16.1 mph 91 % 0.0 in
00:32 9.8 °F 8.6 °F 1018.2 in NW 4.8 mph 16.1 mph 92 % 0.0 in
00:37 9.7 °F 8.5 °F 1018.2 in WNW 11.3 mph 16.1 mph 92 % 0.0 in
00:42 9.7 °F 8.5 °F 1018.2 in NW 3.2 mph 12.9 mph 92 % 0.0 in
00:52 9.6 °F 8.4 °F 1018.5 in NW 8.0 mph 17.7 mph 92 % 0.0 in
00:57 9.6 °F 8.4 °F 1018.5 in NNW 6.4 mph 17.7 mph 92 % 0.0 in
01:02 9.6 °F 8.4 °F 1018.5 in NW 6.4 mph 19.3 mph 92 % 0.0 in
01:12 9.5 °F 8.3 °F 1018.5 in NW 4.8 mph 19.3 mph 92 % 0.0 in
01:17 9.4 °F 8.2 °F 1018.5 in WNW 8.0 mph 20.9 mph 92 % 0.0 in
01:22 9.4 °F 8.2 °F 1018.8 in NNW 9.7 mph 20.9 mph 92 % 0.0 in
01:32 9.3 °F 8.1 °F 1018.8 in NW 9.7 mph 17.7 mph 92 % 0.0 in
01:37 9.4 °F 8.2 °F 1018.8 in NNW 11.3 mph 17.7 mph 92 % 0.0 in
01:42 9.4 °F 8.2 °F 1019.2 in NNW 8.0 mph 19.3 mph 92 % 0.0 in
01:47 9.4 °F 8.0 °F 1019.2 in NNW 9.7 mph 19.3 mph 91 % 0.0 in
01:52 9.4 °F 8.0 °F 1019.2 in North 4.8 mph 20.9 mph 91 % 0.0 in
01:57 9.4 °F 8.0 °F 1019.2 in NW 11.3 mph 20.9 mph 91 % 0.0 in
02:02 9.4 °F 8.0 °F 1019.2 in NW 11.3 mph 20.9 mph 91 % 0.0 in
02:07 9.4 °F 8.0 °F 1019.2 in North 9.7 mph 20.9 mph 91 % 0.0 in
02:12 9.4 °F 8.0 °F 1019.2 in NNE 16.1 mph 20.9 mph 91 % 0.0 in
02:17 9.3 °F 7.9 °F 1019.5 in WNW 14.5 mph 20.9 mph 91 % 0.0 in
02:22 9.3 °F 7.9 °F 1019.5 in NW 17.7 mph 22.5 mph 91 % 0.0 in
02:32 9.3 °F 7.9 °F 1019.5 in North 11.3 mph 25.7 mph 91 % 0.0 in
02:37 9.3 °F 7.9 °F 1019.5 in NW 6.4 mph 25.7 mph 91 % 0.0 in
02:42 9.3 °F 7.9 °F 1019.5 in NNW 16.1 mph 24.1 mph 91 % 0.0 in
02:52 9.2 °F 7.8 °F 1019.9 in NNW 14.5 mph 24.1 mph 91 % 0.0 in
03:02 9.2 °F 7.8 °F 1019.9 in NNW 8.0 mph 20.9 mph 91 % 0.0 in
03:07 9.1 °F 7.7 °F 1020.2 in NNW 16.1 mph 20.9 mph 91 % 0.0 in
03:12 9.1 °F 7.7 °F 1019.9 in North 16.1 mph 27.4 mph 91 % 0.0 in
03:17 9.1 °F 7.7 °F 1020.2 in NNE 9.7 mph 27.4 mph 91 % 0.0 in
03:22 9.0 °F 7.6 °F 1020.2 in North 11.3 mph 27.4 mph 91 % 0.0 in
03:32 8.9 °F 7.5 °F 1020.5 in North 11.3 mph 24.1 mph 91 % 0.0 in
03:37 8.8 °F 7.4 °F 1020.5 in North 12.9 mph 24.1 mph 91 % 0.0 in
03:42 8.7 °F 7.2 °F 1020.5 in NNW 12.9 mph 27.4 mph 90 % 0.0 in
03:47 8.6 °F 7.1 °F 1020.5 in NNE 11.3 mph 27.4 mph 90 % 0.0 in
03:52 8.4 °F 6.9 °F 1020.5 in NNW 8.0 mph 27.4 mph 90 % 0.0 in
03:57 8.3 °F 6.8 °F 1020.5 in North 16.1 mph 27.4 mph 90 % 0.0 in
04:02 8.3 °F 6.9 °F 1020.5 in NNW 16.1 mph 27.4 mph 91 % 0.0 in
04:12 8.3 °F 6.9 °F 1020.5 in NW 8.0 mph 24.1 mph 91 % 0.0 in
04:17 8.3 °F 6.9 °F 1020.5 in NNW 11.3 mph 25.7 mph 91 % 0.0 in
04:22 8.2 °F 6.8 °F 1020.5 in NNW 14.5 mph 25.7 mph 91 % 0.0 in
04:32 8.2 °F 6.8 °F 1020.9 in North 11.3 mph 25.7 mph 91 % 0.0 in
04:42 8.1 °F 6.9 °F 1020.9 in NNE 19.3 mph 22.5 mph 92 % 0.0 in
04:47 8.1 °F 6.9 °F 1021.2 in NNE 19.3 mph 27.4 mph 92 % 0.0 in
04:52 8.1 °F 6.9 °F 1021.2 in North 20.9 mph 27.4 mph 92 % 0.0 in
04:57 8.0 °F 6.8 °F 1021.2 in NE 19.3 mph 27.4 mph 92 % 0.0 in
05:02 8.0 °F 6.8 °F 1021.2 in NNE 14.5 mph 27.4 mph 92 % 0.0 in
05:12 8.0 °F 6.8 °F 1021.6 in NNW 19.3 mph 22.5 mph 92 % 0.0 in
05:17 8.0 °F 6.8 °F 1021.6 in North 17.7 mph 25.7 mph 92 % 0.0 in
05:22 8.0 °F 6.8 °F 1021.6 in NNW 4.8 mph 25.7 mph 92 % 0.0 in
05:32 8.0 °F 6.8 °F 1021.6 in NW 8.0 mph 22.5 mph 92 % 0.0 in
05:42 8.0 °F 6.8 °F 1021.6 in North 11.3 mph 24.1 mph 92 % 0.0 in
05:47 8.0 °F 6.8 °F 1021.9 in NNW 12.9 mph 24.1 mph 92 % 0.0 in
05:52 7.9 °F 6.7 °F 1021.9 in NNW 11.3 mph 24.1 mph 92 % 0.0 in
05:57 7.9 °F 6.5 °F 1021.9 in WNW 4.8 mph 24.1 mph 91 % 0.0 in
06:02 7.8 °F 6.4 °F 1021.9 in NNW 6.4 mph 24.1 mph 91 % 0.0 in
06:07 7.8 °F 6.4 °F 1021.9 in NNW 9.7 mph 25.7 mph 91 % 0.0 in
06:12 7.8 °F 6.6 °F 1021.9 in NW 8.0 mph 25.7 mph 92 % 0.0 in
06:17 7.7 °F 6.5 °F 1022.2 in NNW 11.3 mph 25.7 mph 92 % 0.0 in
06:22 7.7 °F 6.3 °F 1022.2 in NNE 12.9 mph 19.3 mph 91 % 0.0 in
06:32 7.6 °F 6.2 °F 1022.2 in NNW 9.7 mph 19.3 mph 91 % 0.0 in
06:37 7.5 °F 6.1 °F 1022.2 in NNW 4.8 mph 19.3 mph 91 % 0.0 in
06:42 7.4 °F 6.2 °F 1022.6 in North 3.2 mph 16.1 mph 92 % 0.0 in
06:47 7.3 °F 6.1 °F 1022.6 in North 6.4 mph 16.1 mph 92 % 0.0 in
06:52 7.3 °F 6.1 °F 1022.6 in NNW 4.8 mph 9.7 mph 92 % 0.0 in
06:57 7.2 °F 6.0 °F 1022.6 in NNW 3.2 mph 9.7 mph 92 % 0.0 in
07:02 7.1 °F 5.9 °F 1022.9 in NNW 3.2 mph 9.7 mph 92 % 0.0 in
07:12 6.9 °F 5.8 °F 1023.2 in NNE 3.2 mph 6.4 mph 93 % 0.0 in
07:17 6.9 °F 5.8 °F 1023.2 in NNW 1.6 mph 6.4 mph 93 % 0.0 in
07:22 6.8 °F 5.7 °F 1023.2 in North 3.2 mph 6.4 mph 93 % 0.0 in
07:32 6.8 °F 5.7 °F 1023.2 in Calm   6.4 mph 93 % 0.0 in
07:42 6.9 °F 5.8 °F 1023.2 in NE 3.2 mph 6.4 mph 93 % 0.0 in
07:52 7.0 °F 5.9 °F 1023.6 in Calm   9.7 mph 93 % 0.0 in
07:57 7.0 °F 5.8 °F 1023.6 in Calm   8.0 mph 92 % 0.0 in
08:02 6.9 °F 5.7 °F 1023.9 in Calm   8.0 mph 92 % 0.0 in
08:07 6.8 °F 5.6 °F 1023.9 in Calm   3.2 mph 92 % 0.0 in
08:12 6.9 °F 5.8 °F 1023.9 in Calm   3.2 mph 93 % 0.0 in
08:17 7.0 °F 5.9 °F 1023.9 in WNW 1.6 mph 3.2 mph 93 % 0.0 in
08:22 7.1 °F 6.0 °F 1023.9 in NW 1.6 mph 3.2 mph 93 % 0.0 in
08:32 7.6 °F 6.4 °F 1024.3 in Calm   3.2 mph 92 % 0.0 in
08:42 7.8 °F 6.4 °F 1024.3 in NW 1.6 mph 3.2 mph 91 % 0.0 in
08:52 8.0 °F 6.5 °F 1024.6 in North 1.6 mph 8.0 mph 90 % 0.0 in
09:02 8.3 °F 6.6 °F 1024.6 in West 1.6 mph 8.0 mph 89 % 0.0 in
09:12 8.4 °F 6.7 °F 1024.9 in NW 3.2 mph 8.0 mph 89 % 0.0 in
09:17 8.4 °F 6.5 °F 1024.9 in NW 4.8 mph 8.0 mph 88 % 0.0 in
09:22 8.5 °F 6.6 °F 1024.9 in NW 3.2 mph 8.0 mph 88 % 0.0 in
09:32 8.6 °F 6.7 °F 1024.9 in NNW 3.2 mph 8.0 mph 88 % 0.0 in
09:42 8.8 °F 6.8 °F 1025.3 in NW 4.8 mph 9.7 mph 87 % 0.0 in
09:47 9.1 °F 7.1 °F 1025.3 in NNW 3.2 mph 9.7 mph 87 % 0.0 in
09:52 9.2 °F 7.0 °F 1025.3 in Calm   9.7 mph 86 % 0.0 in
09:57 9.4 °F 7.2 °F 1025.3 in WNW 1.6 mph 9.7 mph 86 % 0.0 in
10:02 9.5 °F 7.1 °F 1025.3 in NW 3.2 mph 8.0 mph 85 % 0.0 in
10:12 9.6 °F 7.2 °F 1025.6 in NW 6.4 mph 11.3 mph 85 % 0.0 in
10:17 9.6 °F 7.2 °F 1025.6 in NW 4.8 mph 14.5 mph 85 % 0.0 in
10:22 9.6 °F 7.0 °F 1026.0 in NNW 6.4 mph 14.5 mph 84 % 0.0 in
10:27 9.6 °F 7.0 °F 1026.0 in NW 3.2 mph 14.5 mph 84 % 0.0 in
10:32 9.6 °F 7.0 °F 1026.0 in NW 4.8 mph 12.9 mph 84 % 0.0 in
10:37 9.6 °F 7.2 °F 1026.0 in NW 9.7 mph 12.9 mph 85 % 0.0 in
10:42 9.8 °F 7.4 °F 1026.0 in NW 6.4 mph 14.5 mph 85 % 0.0 in
10:47 10.1 °F 7.3 °F 1026.0 in NNW 8.0 mph 14.5 mph 83 % 0.0 in
10:52 10.2 °F 7.3 °F 1026.0 in WNW 6.4 mph 14.5 mph 82 % 0.0 in
11:02 10.7 °F 7.9 °F 1026.3 in NNW 9.7 mph 12.9 mph 83 % 0.0 in
11:12 11.2 °F 8.1 °F 1026.3 in Calm   11.3 mph 81 % 0.0 in
11:22 11.7 °F 8.2 °F 1026.3 in NNE 3.2 mph 11.3 mph 79 % 0.0 in
11:32 11.7 °F 8.0 °F 1026.6 in NNW 9.7 mph 14.5 mph 78 % 0.0 in
11:37 11.8 °F 7.9 °F 1026.6 in NW 12.9 mph 14.5 mph 77 % 0.0 in
11:42 11.9 °F 8.2 °F 1026.6 in ENE 4.8 mph 12.9 mph 78 % 0.0 in
11:47 12.1 °F 7.8 °F 1026.6 in NW 6.4 mph 14.5 mph 75 % 0.0 in
11:57 12.5 °F 8.2 °F 1027.0 in North 11.3 mph 16.1 mph 75 % 0.0 in
12:02 12.6 °F 8.1 °F 1027.0 in NW 12.9 mph 16.1 mph 74 % 0.0 in
12:12 12.8 °F 7.9 °F 1027.0 in NNW 4.8 mph 19.3 mph 72 % 0.0 in
12:17 13.1 °F 8.8 °F 1027.0 in NW 6.4 mph 19.3 mph 75 % 0.0 in
12:22 13.1 °F 8.4 °F 1027.3 in NNE 9.7 mph 19.3 mph 73 % 0.0 in
12:32 13.3 °F 8.6 °F 1027.3 in North 8.0 mph 20.9 mph 73 % 0.0 in
12:42 13.3 °F 7.9 °F 1027.3 in NNW 8.0 mph 19.3 mph 70 % 0.0 in
12:52 13.4 °F 8.0 °F 1027.3 in NNW 20.9 mph 25.7 mph 70 % 0.0 in
12:57 13.5 °F 7.9 °F 1027.3 in NNW 14.5 mph 25.7 mph 69 % 0.0 in
13:02 13.6 °F 8.0 °F 1027.3 in North 12.9 mph 25.7 mph 69 % 0.0 in
13:12 13.8 °F 7.6 °F 1027.0 in North 9.7 mph 25.7 mph 66 % 0.0 in
13:17 14.1 °F 7.8 °F 1027.0 in NW 8.0 mph 25.7 mph 66 % 0.0 in
13:22 14.0 °F 7.5 °F 1027.3 in NNE 17.7 mph 25.7 mph 65 % 0.0 in
13:27 14.0 °F 7.7 °F 1027.3 in NNW 4.8 mph 25.7 mph 66 % 0.0 in
13:32 14.2 °F 7.5 °F 1027.3 in NE 12.9 mph 25.7 mph 64 % 0.0 in
13:37 14.2 °F 7.9 °F 1027.0 in NNW 9.7 mph 25.7 mph 66 % 0.0 in
13:42 14.2 °F 7.7 °F 1027.0 in WNW 9.7 mph 25.7 mph 65 % 0.0 in
13:47 14.3 °F 7.6 °F 1027.0 in NNE 8.0 mph 27.4 mph 64 % 0.0 in
13:52 14.4 °F 7.9 °F 1027.3 in NNW 16.1 mph 27.4 mph 65 % 0.0 in
13:57 14.4 °F 7.7 °F 1027.0 in NE 9.7 mph 27.4 mph 64 % 0.0 in
14:02 14.5 °F 7.5 °F 1027.3 in NNE 9.7 mph 24.1 mph 63 % 0.0 in
14:12 14.7 °F 8.2 °F 1027.3 in North 17.7 mph 20.9 mph 65 % 0.0 in
14:17 14.7 °F 8.0 °F 1027.3 in North 19.3 mph 20.9 mph 64 % 0.0 in
14:22 14.8 °F 7.8 °F 1027.3 in NNW 9.7 mph 25.7 mph 63 % 0.0 in
14:27 14.8 °F 7.4 °F 1027.3 in NE 4.8 mph 25.7 mph 61 % 0.0 in
14:32 14.7 °F 7.0 °F 1027.3 in NNW 12.9 mph 25.7 mph 60 % 0.0 in
14:42 14.8 °F 7.4 °F 1027.7 in WNW 12.9 mph 32.2 mph 61 % 0.0 in
14:52 14.8 °F 6.9 °F 1027.7 in North 11.3 mph 32.2 mph 59 % 0.0 in
14:57 14.8 °F 7.6 °F 1027.7 in NNW 17.7 mph 29.0 mph 62 % 0.0 in
15:02 14.9 °F 7.9 °F 1027.7 in NNE 11.3 mph 29.0 mph 63 % 0.0 in
15:12 15.1 °F 7.6 °F 1027.7 in NNW 16.1 mph 29.0 mph 61 % 0.0 in
15:22 14.9 °F 7.0 °F 1027.7 in NNW 12.9 mph 29.0 mph 59 % 0.0 in
15:32 15.0 °F 6.8 °F 1027.7 in NNW 9.7 mph 29.0 mph 58 % 0.0 in
15:42 15.2 °F 7.7 °F 1027.7 in NNW 11.3 mph 24.1 mph 61 % 0.0 in
15:47 15.2 °F 6.7 °F 1027.7 in North 17.7 mph 20.9 mph 57 % 0.0 in
15:52 15.2 °F 7.0 °F 1028.0 in NNW 11.3 mph 22.5 mph 58 % 0.0 in
15:57 15.2 °F 7.2 °F 1028.0 in NNW 8.0 mph 24.1 mph 59 % 0.0 in
16:02 15.1 °F 6.4 °F 1028.0 in NNW 12.9 mph 24.1 mph 56 % 0.0 in
16:07 15.2 °F 6.7 °F 1028.0 in North 16.1 mph 24.1 mph 57 % 0.0 in
16:12 15.2 °F 6.5 °F 1028.0 in WNW 12.9 mph 24.1 mph 56 % 0.0 in
16:17 15.3 °F 7.1 °F 1028.0 in North 11.3 mph 24.1 mph 58 % 0.0 in
16:22 15.4 °F 7.4 °F 1028.0 in NNE 9.7 mph 24.1 mph 59 % 0.0 in
16:32 15.3 °F 6.8 °F 1028.3 in NNW 6.4 mph 22.5 mph 57 % 0.0 in
16:42 15.3 °F 7.6 °F 1028.3 in NNE 9.7 mph 22.5 mph 60 % 0.0 in
16:47 15.2 °F 6.7 °F 1028.3 in NNW 11.3 mph 22.5 mph 57 % 0.0 in
16:52 15.2 °F 7.0 °F 1028.3 in NNE 12.9 mph 19.3 mph 58 % 0.0 in
16:57 15.2 °F 7.2 °F 1028.3 in NNE 11.3 mph 20.9 mph 59 % 0.0 in
17:02 15.2 °F 5.4 °F 1028.7 in NNE 12.9 mph 24.1 mph 52 % 0.0 in
17:07 15.2 °F 5.7 °F 1028.7 in North 9.7 mph 24.1 mph 53 % 0.0 in
17:12 15.2 °F 5.1 °F 1028.7 in NNW 16.1 mph 24.1 mph 51 % 0.0 in
17:17 15.1 °F 5.0 °F 1028.7 in NNE 9.7 mph 25.7 mph 51 % 0.0 in
17:22 15.1 °F 5.3 °F 1028.7 in North 17.7 mph 25.7 mph 52 % 0.0 in
17:32 15.0 °F 5.2 °F 1028.7 in North 9.7 mph 24.1 mph 52 % 0.0 in
17:37 14.9 °F 5.7 °F 1028.7 in NNE 4.8 mph 24.1 mph 54 % 0.0 in
17:42 14.8 °F 5.3 °F 1028.7 in North 8.0 mph 20.9 mph 53 % 0.0 in
17:47 14.7 °F 5.8 °F 1029.0 in North 3.2 mph 22.5 mph 55 % 0.0 in
17:52 14.7 °F 5.2 °F 1029.0 in NNE 4.8 mph 22.5 mph 53 % 0.0 in
18:02 14.4 °F 4.9 °F 1029.0 in NE 8.0 mph 20.9 mph 53 % 0.0 in
18:07 14.3 °F 5.4 °F 1029.3 in NNE 8.0 mph 25.7 mph 55 % 0.0 in
18:12 14.2 °F 5.3 °F 1029.3 in NNW 6.4 mph 25.7 mph 55 % 0.0 in
18:17 14.1 °F 5.2 °F 1029.3 in NE 6.4 mph 25.7 mph 55 % 0.0 in
18:22 13.9 °F 5.3 °F 1029.3 in NNW 9.7 mph 19.3 mph 56 % 0.0 in
18:27 13.8 °F 5.2 °F 1029.3 in North 4.8 mph 16.1 mph 56 % 0.0 in
18:32 13.7 °F 5.3 °F 1029.7 in NW 1.6 mph 16.1 mph 57 % 0.0 in
18:37 13.6 °F 5.2 °F 1029.7 in NNW 8.0 mph 14.5 mph 57 % 0.0 in
18:42 13.4 °F 5.1 °F 1029.7 in NNW 6.4 mph 14.5 mph 57 % 0.0 in
18:52 13.2 °F 5.1 °F 1029.7 in North 4.8 mph 14.5 mph 58 % 0.0 in
19:02 12.9 °F 4.8 °F 1030.0 in North 6.4 mph 11.3 mph 58 % 0.0 in
19:07 12.8 °F 5.0 °F 1030.0 in NE 4.8 mph 12.9 mph 59 % 0.0 in
19:17 12.6 °F 5.0 °F 1030.0 in North 6.4 mph 11.3 mph 60 % 0.0 in
19:22 12.4 °F 5.1 °F 1030.0 in NNW 3.2 mph 11.3 mph 61 % 0.0 in
19:32 12.2 °F 5.1 °F 1030.0 in NNE 1.6 mph 8.0 mph 62 % 0.0 in
19:37 12.1 °F 5.0 °F 1030.4 in NNE 3.2 mph 8.0 mph 62 % 0.0 in
19:42 12.0 °F 4.9 °F 1030.4 in North 1.6 mph 8.0 mph 62 % 0.0 in
19:47 11.9 °F 5.1 °F 1030.4 in NNW 3.2 mph 8.0 mph 63 % 0.0 in
19:52 11.8 °F 5.0 °F 1030.4 in North 3.2 mph 8.0 mph 63 % 0.0 in
20:02 11.5 °F 4.9 °F 1030.4 in NNW 1.6 mph 8.0 mph 64 % 0.0 in
20:07 11.4 °F 5.1 °F 1030.7 in NNE 1.6 mph 6.4 mph 65 % 0.0 in
20:12 11.2 °F 5.1 °F 1030.7 in North 3.2 mph 4.8 mph 66 % 0.0 in
20:17 11.1 °F 5.2 °F 1030.7 in North 3.2 mph 4.8 mph 67 % 0.0 in
20:22 11.0 °F 5.1 °F 1030.7 in NNE 3.2 mph 4.8 mph 67 % 0.0 in
20:32 11.1 °F 5.4 °F 1031.0 in NNE 6.4 mph 9.7 mph 68 % 0.0 in
20:37 11.1 °F 5.4 °F 1031.0 in NNE 6.4 mph 9.7 mph 68 % 0.0 in
20:42 11.1 °F 5.6 °F 1031.0 in NNE 8.0 mph 9.7 mph 69 % 0.0 in
20:47 11.1 °F 5.6 °F 1031.0 in NNE 1.6 mph 11.3 mph 69 % 0.0 in
20:57 10.9 °F 5.4 °F 1031.0 in North 4.8 mph 11.3 mph 69 % 0.0 in
21:02 10.8 °F 5.5 °F 1031.0 in NNE 4.8 mph 9.7 mph 70 % 0.0 in
21:07 10.6 °F 5.6 °F 1031.0 in North 1.6 mph 9.7 mph 71 % 0.0 in
21:12 10.3 °F 5.5 °F 1031.0 in NNW 1.6 mph 6.4 mph 72 % 0.0 in
21:17 10.4 °F 5.4 °F 1031.4 in NNW 1.6 mph 4.8 mph 71 % 0.0 in
21:27 10.5 °F 5.3 °F 1031.4 in NNW 4.8 mph 8.0 mph 70 % 0.0 in
21:32 10.6 °F 5.1 °F 1031.4 in NNW 4.8 mph 8.0 mph 69 % 0.0 in
21:37 10.6 °F 5.1 °F 1031.4 in North 8.0 mph 9.7 mph 69 % 0.0 in
21:42 10.5 °F 5.1 °F 1031.7 in North 4.8 mph 12.9 mph 69 % 0.0 in
21:47 10.4 °F 5.0 °F 1031.7 in NNE 8.0 mph 12.9 mph 69 % 0.0 in
21:52 10.5 °F 5.3 °F 1032.1 in NNW 8.0 mph 16.1 mph 70 % 0.0 in
21:57 10.4 °F 5.4 °F 1032.1 in NNE 12.9 mph 16.1 mph 71 % 0.0 in
22:02 10.5 °F 5.9 °F 1032.1 in NNW 6.4 mph 16.1 mph 73 % 0.0 in
22:07 10.7 °F 6.3 °F 1032.1 in NNE 4.8 mph 16.1 mph 74 % 0.0 in
22:12 10.7 °F 6.4 °F 1032.1 in North 6.4 mph 19.3 mph 75 % 0.0 in
22:17 10.6 °F 6.5 °F 1032.1 in NE 8.0 mph 19.3 mph 76 % 0.0 in
22:22 10.4 °F 6.5 °F 1032.1 in North 14.5 mph 19.3 mph 77 % 0.0 in
22:32 10.3 °F 6.8 °F 1032.1 in NE 6.4 mph 20.9 mph 79 % 0.0 in
22:37 10.3 °F 6.8 °F 1032.4 in NE 9.7 mph 20.9 mph 79 % 0.0 in
22:42 10.2 °F 6.7 °F 1032.4 in NNE 12.9 mph 20.9 mph 79 % 0.0 in
22:47 10.2 °F 6.9 °F 1032.1 in NNW 9.7 mph 20.9 mph 80 % 0.0 in
22:52 10.1 °F 7.0 °F 1032.4 in NE 4.8 mph 17.7 mph 81 % 0.0 in
22:57 10.1 °F 7.2 °F 1032.4 in North 1.6 mph 20.9 mph 82 % 0.0 in
23:02 9.9 °F 7.0 °F 1032.4 in NNW 4.8 mph 20.9 mph 82 % 0.0 in
23:07 9.8 °F 7.1 °F 1032.4 in NW 9.7 mph 20.9 mph 83 % 0.0 in
23:12 9.8 °F 7.1 °F 1032.4 in NNE 6.4 mph 17.7 mph 83 % 0.0 in
23:17 9.7 °F 7.1 °F 1032.4 in NNE 4.8 mph 17.7 mph 84 % 0.0 in
23:22 9.6 °F 7.0 °F 1032.7 in NW 1.6 mph 17.7 mph 84 % 0.0 in
23:27 9.5 °F 7.1 °F 1032.7 in NNE 6.4 mph 17.7 mph 85 % 0.0 in
23:32 9.4 °F 7.0 °F 1032.4 in NNE 11.3 mph 17.7 mph 85 % 0.0 in
23:37 9.4 °F 7.0 °F 1032.7 in NNE 4.8 mph 17.7 mph 85 % 0.0 in
23:42 9.3 °F 6.9 °F 1032.7 in NE 1.6 mph 12.9 mph 85 % 0.0 in
23:47 9.1 °F 6.9 °F 1032.7 in North 3.2 mph 12.9 mph 86 % 0.0 in
23:52 9.1 °F 6.9 °F 1032.7 in NNE 3.2 mph 14.5 mph 86 % 0.0 in
23:57 9.0 °F 6.8 °F 1033.1 in NNE 3.2 mph 14.5 mph 86 % 0.0 in
Meteo18
Compliments of Weather Underground - 4 mb

Script developed by  Jim McMurry - jmcmurry@mwt.net Adapted for the template by  Wim van der Kuil - Leuven-Template.eu

You find our weather info also at:

European Weather Network

Weather Underground

Equipment we use:

Weather-station
Davis Vue

Weather-program
Meteobridge

Weather-server
Raspberry PI 2 B+

Provider
1 and 1

Davis Vue

Meteobridge

Raspberry PI 2 B+

1 and 1